sensor_id;sensor_type;location;lat;lon;timestamp;temperature;humidity
40059;SHT31;25763;49.972;8.568;2023-06-24T00:01:14;17.51;70.06
40059;SHT31;25763;49.972;8.568;2023-06-24T00:03:40;17.36;70.59
40059;SHT31;25763;49.972;8.568;2023-06-24T00:06:05;17.22;70.45
40059;SHT31;25763;49.972;8.568;2023-06-24T00:08:31;17.11;70.88
40059;SHT31;25763;49.972;8.568;2023-06-24T00:11:02;16.97;71.28
40059;SHT31;25763;49.972;8.568;2023-06-24T00:13:28;16.90;71.54
40059;SHT31;25763;49.972;8.568;2023-06-24T00:15:56;16.98;71.84
40059;SHT31;25763;49.972;8.568;2023-06-24T00:18:22;17.09;72.63
40059;SHT31;25763;49.972;8.568;2023-06-24T00:20:50;17.14;72.71
40059;SHT31;25763;49.972;8.568;2023-06-24T00:23:17;17.06;72.96
40059;SHT31;25763;49.972;8.568;2023-06-24T00:25:43;17.01;73.29
40059;SHT31;25763;49.972;8.568;2023-06-24T00:28:08;16.73;73.45
40059;SHT31;25763;49.972;8.568;2023-06-24T00:30:34;16.67;74.46
40059;SHT31;25763;49.972;8.568;2023-06-24T00:32:59;16.57;74.80
40059;SHT31;25763;49.972;8.568;2023-06-24T00:35:24;16.33;75.20
40059;SHT31;25763;49.972;8.568;2023-06-24T00:37:50;16.25;75.89
40059;SHT31;25763;49.972;8.568;2023-06-24T00:40:15;16.00;76.21
40059;SHT31;25763;49.972;8.568;2023-06-24T00:42:44;15.93;75.93
40059;SHT31;25763;49.972;8.568;2023-06-24T00:45:10;15.94;75.62
40059;SHT31;25763;49.972;8.568;2023-06-24T00:47:36;16.03;74.96
40059;SHT31;25763;49.972;8.568;2023-06-24T00:50:01;15.98;75.05
40059;SHT31;25763;49.972;8.568;2023-06-24T00:52:27;15.90;75.34
40059;SHT31;25763;49.972;8.568;2023-06-24T00:54:52;15.90;76.02
40059;SHT31;25763;49.972;8.568;2023-06-24T00:57:19;16.07;75.65
40059;SHT31;25763;49.972;8.568;2023-06-24T00:59:48;16.18;75.54
40059;SHT31;25763;49.972;8.568;2023-06-24T01:02:19;16.29;75.30
40059;SHT31;25763;49.972;8.568;2023-06-24T01:04:46;16.30;75.21
40059;SHT31;25763;49.972;8.568;2023-06-24T01:07:12;16.39;75.06
40059;SHT31;25763;49.972;8.568;2023-06-24T01:09:37;16.46;75.09
40059;SHT31;25763;49.972;8.568;2023-06-24T01:12:03;16.50;74.83
40059;SHT31;25763;49.972;8.568;2023-06-24T01:14:29;16.55;74.92
40059;SHT31;25763;49.972;8.568;2023-06-24T01:17:11;16.57;74.91
40059;SHT31;25763;49.972;8.568;2023-06-24T01:19:47;16.32;74.64
40059;SHT31;25763;49.972;8.568;2023-06-24T01:22:23;16.01;75.17
40059;SHT31;25763;49.972;8.568;2023-06-24T01:33:41;15.56;76.32
40059;SHT31;25763;49.972;8.568;2023-06-24T01:36:11;15.59;76.25
40059;SHT31;25763;49.972;8.568;2023-06-24T01:38:43;15.62;76.18
40059;SHT31;25763;49.972;8.568;2023-06-24T01:41:13;15.55;76.51
40059;SHT31;25763;49.972;8.568;2023-06-24T01:43:40;15.38;77.99
40059;SHT31;25763;49.972;8.568;2023-06-24T01:46:09;15.35;78.02
40059;SHT31;25763;49.972;8.568;2023-06-24T01:48:35;15.24;78.68
40059;SHT31;25763;49.972;8.568;2023-06-24T01:51:06;15.37;77.79
40059;SHT31;25763;49.972;8.568;2023-06-24T01:53:35;15.38;77.80
40059;SHT31;25763;49.972;8.568;2023-06-24T01:56:03;15.32;77.85
40059;SHT31;25763;49.972;8.568;2023-06-24T01:58:30;15.28;78.36
40059;SHT31;25763;49.972;8.568;2023-06-24T02:00:57;15.28;78.74
40059;SHT31;25763;49.972;8.568;2023-06-24T02:03:24;15.24;79.18
40059;SHT31;25763;49.972;8.568;2023-06-24T02:05:51;15.28;79.01
40059;SHT31;25763;49.972;8.568;2023-06-24T02:08:18;15.42;78.53
40059;SHT31;25763;49.972;8.568;2023-06-24T02:10:46;15.51;78.35
40059;SHT31;25763;49.972;8.568;2023-06-24T02:13:13;15.51;78.23
40059;SHT31;25763;49.972;8.568;2023-06-24T02:15:39;15.63;77.90
40059;SHT31;25763;49.972;8.568;2023-06-24T02:18:07;15.71;77.74
40059;SHT31;25763;49.972;8.568;2023-06-24T02:20:35;15.79;77.53
40059;SHT31;25763;49.972;8.568;2023-06-24T02:23:01;15.83;77.37
40059;SHT31;25763;49.972;8.568;2023-06-24T02:25:27;15.87;77.28
40059;SHT31;25763;49.972;8.568;2023-06-24T02:27:54;15.93;77.14
40059;SHT31;25763;49.972;8.568;2023-06-24T02:30:23;15.93;76.99
40059;SHT31;25763;49.972;8.568;2023-06-24T02:32:49;15.76;77.29
40059;SHT31;25763;49.972;8.568;2023-06-24T02:35:14;15.63;77.36
40059;SHT31;25763;49.972;8.568;2023-06-24T02:37:40;15.59;77.59
40059;SHT31;25763;49.972;8.568;2023-06-24T02:40:07;15.49;77.75
40059;SHT31;25763;49.972;8.568;2023-06-24T02:42:33;15.41;77.98
40059;SHT31;25763;49.972;8.568;2023-06-24T02:44:59;15.18;78.82
40059;SHT31;25763;49.972;8.568;2023-06-24T02:47:25;15.15;78.61
40059;SHT31;25763;49.972;8.568;2023-06-24T02:49:52;14.92;78.67
40059;SHT31;25763;49.972;8.568;2023-06-24T02:52:19;14.75;78.87
40059;SHT31;25763;49.972;8.568;2023-06-24T02:54:44;14.55;79.70
40059;SHT31;25763;49.972;8.568;2023-06-24T02:57:10;14.37;80.89
40059;SHT31;25763;49.972;8.568;2023-06-24T02:59:36;14.54;80.34
40059;SHT31;25763;49.972;8.568;2023-06-24T03:02:03;14.55;80.76
40059;SHT31;25763;49.972;8.568;2023-06-24T03:04:30;14.67;80.29
40059;SHT31;25763;49.972;8.568;2023-06-24T03:06:55;14.65;80.03
40059;SHT31;25763;49.972;8.568;2023-06-24T03:09:21;14.71;79.82
40059;SHT31;25763;49.972;8.568;2023-06-24T03:11:48;14.73;79.65
40059;SHT31;25763;49.972;8.568;2023-06-24T03:14:13;14.73;79.49
40059;SHT31;25763;49.972;8.568;2023-06-24T03:16:39;14.75;79.50
40059;SHT31;25763;49.972;8.568;2023-06-24T03:19:04;14.72;79.70
40059;SHT31;25763;49.972;8.568;2023-06-24T03:21:30;14.64;79.99
40059;SHT31;25763;49.972;8.568;2023-06-24T03:23:56;14.76;79.73
40059;SHT31;25763;49.972;8.568;2023-06-24T03:26:22;14.83;79.80
40059;SHT31;25763;49.972;8.568;2023-06-24T03:28:47;14.96;79.72
40059;SHT31;25763;49.972;8.568;2023-06-24T03:31:14;15.02;79.56
40059;SHT31;25763;49.972;8.568;2023-06-24T03:33:41;15.10;79.39
40059;SHT31;25763;49.972;8.568;2023-06-24T03:36:10;14.97;79.65
40059;SHT31;25763;49.972;8.568;2023-06-24T03:38:35;14.87;79.58
40059;SHT31;25763;49.972;8.568;2023-06-24T03:41:01;14.86;79.51
40059;SHT31;25763;49.972;8.568;2023-06-24T03:43:26;14.86;79.48
40059;SHT31;25763;49.972;8.568;2023-06-24T03:45:51;14.83;80.37
40059;SHT31;25763;49.972;8.568;2023-06-24T03:48:17;14.75;80.25
40059;SHT31;25763;49.972;8.568;2023-06-24T03:50:42;14.64;80.40
40059;SHT31;25763;49.972;8.568;2023-06-24T03:53:07;14.67;80.19
40059;SHT31;25763;49.972;8.568;2023-06-24T03:55:33;14.58;80.28
40059;SHT31;25763;49.972;8.568;2023-06-24T03:57:58;14.55;80.22
40059;SHT31;25763;49.972;8.568;2023-06-24T04:00:23;14.58;80.19
40059;SHT31;25763;49.972;8.568;2023-06-24T04:02:49;14.67;80.13
40059;SHT31;25763;49.972;8.568;2023-06-24T04:05:15;14.71;80.09
40059;SHT31;25763;49.972;8.568;2023-06-24T04:07:40;14.67;80.29
40059;SHT31;25763;49.972;8.568;2023-06-24T04:10:06;14.51;80.63
40059;SHT31;25763;49.972;8.568;2023-06-24T04:12:34;14.44;81.23
40059;SHT31;25763;49.972;8.568;2023-06-24T04:15:04;14.67;80.82
40059;SHT31;25763;49.972;8.568;2023-06-24T04:17:30;14.65;80.92
40059;SHT31;25763;49.972;8.568;2023-06-24T04:19:56;14.67;81.48
40059;SHT31;25763;49.972;8.568;2023-06-24T04:22:21;14.69;81.53
40059;SHT31;25763;49.972;8.568;2023-06-24T04:24:47;14.61;81.78
40059;SHT31;25763;49.972;8.568;2023-06-24T04:27:12;14.76;81.51
40059;SHT31;25763;49.972;8.568;2023-06-24T04:29:38;14.86;81.87
40059;SHT31;25763;49.972;8.568;2023-06-24T04:32:03;14.90;81.88
40059;SHT31;25763;49.972;8.568;2023-06-24T04:34:29;15.06;81.62
40059;SHT31;25763;49.972;8.568;2023-06-24T04:36:54;15.04;81.45
40059;SHT31;25763;49.972;8.568;2023-06-24T04:39:20;15.17;81.12
40059;SHT31;25763;49.972;8.568;2023-06-24T04:41:45;15.27;80.91
40059;SHT31;25763;49.972;8.568;2023-06-24T04:44:12;15.46;80.76
40059;SHT31;25763;49.972;8.568;2023-06-24T04:46:37;15.71;80.63
40059;SHT31;25763;49.972;8.568;2023-06-24T04:49:03;15.88;80.62
40059;SHT31;25763;49.972;8.568;2023-06-24T04:51:28;16.05;80.18
40059;SHT31;25763;49.972;8.568;2023-06-24T04:53:53;16.14;79.51
40059;SHT31;25763;49.972;8.568;2023-06-24T04:56:20;16.22;79.20
40059;SHT31;25763;49.972;8.568;2023-06-24T04:58:45;16.25;78.94
40059;SHT31;25763;49.972;8.568;2023-06-24T05:01:11;16.35;78.82
40059;SHT31;25763;49.972;8.568;2023-06-24T05:03:37;16.43;78.85
40059;SHT31;25763;49.972;8.568;2023-06-24T05:06:02;16.33;78.62
40059;SHT31;25763;49.972;8.568;2023-06-24T05:08:27;16.28;78.54
40059;SHT31;25763;49.972;8.568;2023-06-24T05:10:53;16.33;78.16
40059;SHT31;25763;49.972;8.568;2023-06-24T05:13:18;16.35;78.16
40059;SHT31;25763;49.972;8.568;2023-06-24T05:15:43;16.43;77.68
40059;SHT31;25763;49.972;8.568;2023-06-24T05:18:09;16.49;77.58
40059;SHT31;25763;49.972;8.568;2023-06-24T05:20:34;16.64;77.48
40059;SHT31;25763;49.972;8.568;2023-06-24T05:22:59;16.81;77.22
40059;SHT31;25763;49.972;8.568;2023-06-24T05:25:25;17.08;76.95
40059;SHT31;25763;49.972;8.568;2023-06-24T05:27:50;17.22;76.55
40059;SHT31;25763;49.972;8.568;2023-06-24T05:30:17;17.34;75.95
40059;SHT31;25763;49.972;8.568;2023-06-24T05:32:42;17.51;76.23
40059;SHT31;25763;49.972;8.568;2023-06-24T05:35:07;17.68;75.43
40059;SHT31;25763;49.972;8.568;2023-06-24T05:37:33;17.96;76.31
40059;SHT31;25763;49.972;8.568;2023-06-24T05:39:59;17.95;74.52
40059;SHT31;25763;49.972;8.568;2023-06-24T05:42:26;18.12;75.06
40059;SHT31;25763;49.972;8.568;2023-06-24T05:44:52;18.10;74.52
40059;SHT31;25763;49.972;8.568;2023-06-24T05:47:17;18.33;75.29
40059;SHT31;25763;49.972;8.568;2023-06-24T05:49:42;18.45;75.01
40059;SHT31;25763;49.972;8.568;2023-06-24T05:52:08;18.35;73.66
40059;SHT31;25763;49.972;8.568;2023-06-24T05:54:33;18.62;73.94
40059;SHT31;25763;49.972;8.568;2023-06-24T05:56:58;18.82;74.14
40059;SHT31;25763;49.972;8.568;2023-06-24T05:59:24;18.93;73.46
40059;SHT31;25763;49.972;8.568;2023-06-24T06:01:49;19.10;73.57
40059;SHT31;25763;49.972;8.568;2023-06-24T06:04:14;19.24;73.02
40059;SHT31;25763;49.972;8.568;2023-06-24T06:06:40;19.49;73.84
40059;SHT31;25763;49.972;8.568;2023-06-24T06:09:05;19.38;71.98
40059;SHT31;25763;49.972;8.568;2023-06-24T06:11:31;19.55;72.33
40059;SHT31;25763;49.972;8.568;2023-06-24T06:13:56;19.86;73.56
40059;SHT31;25763;49.972;8.568;2023-06-24T06:16:22;19.83;70.56
40059;SHT31;25763;49.972;8.568;2023-06-24T06:18:47;20.07;71.75
40059;SHT31;25763;49.972;8.568;2023-06-24T06:21:12;20.32;71.98
40059;SHT31;25763;49.972;8.568;2023-06-24T06:23:38;20.50;71.14
40059;SHT31;25763;49.972;8.568;2023-06-24T06:26:03;20.77;71.81
40059;SHT31;25763;49.972;8.568;2023-06-24T06:28:28;20.94;70.47
40059;SHT31;25763;49.972;8.568;2023-06-24T06:30:54;20.92;69.89
40059;SHT31;25763;49.972;8.568;2023-06-24T06:33:19;20.95;68.57
40059;SHT31;25763;49.972;8.568;2023-06-24T06:35:44;20.91;67.62
40059;SHT31;25763;49.972;8.568;2023-06-24T06:38:10;20.88;67.60
40059;SHT31;25763;49.972;8.568;2023-06-24T06:40:35;20.98;67.34
40059;SHT31;25763;49.972;8.568;2023-06-24T06:43:01;21.04;67.65
40059;SHT31;25763;49.972;8.568;2023-06-24T06:45:26;21.33;69.29
40059;SHT31;25763;49.972;8.568;2023-06-24T06:47:51;21.63;69.45
40059;SHT31;25763;49.972;8.568;2023-06-24T06:50:17;21.58;65.63
40059;SHT31;25763;49.972;8.568;2023-06-24T06:52:42;21.60;66.00
40059;SHT31;25763;49.972;8.568;2023-06-24T06:55:08;21.74;67.28
40059;SHT31;25763;49.972;8.568;2023-06-24T06:57:33;21.75;67.96
40059;SHT31;25763;49.972;8.568;2023-06-24T06:59:58;21.99;66.34
40059;SHT31;25763;49.972;8.568;2023-06-24T07:02:24;22.08;65.20
40059;SHT31;25763;49.972;8.568;2023-06-24T07:04:49;22.26;65.76
40059;SHT31;25763;49.972;8.568;2023-06-24T07:07:16;22.37;65.75
40059;SHT31;25763;49.972;8.568;2023-06-24T07:09:41;22.39;65.58
40059;SHT31;25763;49.972;8.568;2023-06-24T07:12:07;22.54;65.11
40059;SHT31;25763;49.972;8.568;2023-06-24T07:14:33;22.58;63.63
40059;SHT31;25763;49.972;8.568;2023-06-24T07:16:58;22.68;64.06
40059;SHT31;25763;49.972;8.568;2023-06-24T07:19:24;22.88;64.74
40059;SHT31;25763;49.972;8.568;2023-06-24T07:21:49;22.96;63.76
40059;SHT31;25763;49.972;8.568;2023-06-24T07:24:14;22.98;63.71
40059;SHT31;25763;49.972;8.568;2023-06-24T07:26:40;23.20;64.20
40059;SHT31;25763;49.972;8.568;2023-06-24T07:29:06;23.40;64.02
40059;SHT31;25763;49.972;8.568;2023-06-24T07:31:32;23.23;62.19
40059;SHT31;25763;49.972;8.568;2023-06-24T07:33:57;23.10;62.56
40059;SHT31;25763;49.972;8.568;2023-06-24T07:36:23;23.26;62.99
40059;SHT31;25763;49.972;8.568;2023-06-24T07:38:48;23.33;62.28
40059;SHT31;25763;49.972;8.568;2023-06-24T07:41:13;23.44;62.80
40059;SHT31;25763;49.972;8.568;2023-06-24T07:43:39;23.51;62.52
40059;SHT31;25763;49.972;8.568;2023-06-24T07:46:04;23.51;61.68
40059;SHT31;25763;49.972;8.568;2023-06-24T07:48:29;23.55;61.73
40059;SHT31;25763;49.972;8.568;2023-06-24T07:50:55;23.74;61.81
40059;SHT31;25763;49.972;8.568;2023-06-24T07:53:20;23.90;61.11
40059;SHT31;25763;49.972;8.568;2023-06-24T07:55:45;24.07;61.04
40059;SHT31;25763;49.972;8.568;2023-06-24T07:58:11;24.00;59.96
40059;SHT31;25763;49.972;8.568;2023-06-24T08:00:36;24.18;61.66
40059;SHT31;25763;49.972;8.568;2023-06-24T08:03:03;24.38;61.30
40059;SHT31;25763;49.972;8.568;2023-06-24T08:05:28;24.58;60.78
40059;SHT31;25763;49.972;8.568;2023-06-24T08:07:54;24.76;61.87
40059;SHT31;25763;49.972;8.568;2023-06-24T08:10:19;24.45;57.26
40059;SHT31;25763;49.972;8.568;2023-06-24T08:12:45;24.77;60.97
40059;SHT31;25763;49.972;8.568;2023-06-24T08:15:10;24.82;59.72
40059;SHT31;25763;49.972;8.568;2023-06-24T08:17:36;24.90;58.92
40059;SHT31;25763;49.972;8.568;2023-06-24T08:20:02;24.93;58.38
40059;SHT31;25763;49.972;8.568;2023-06-24T08:22:28;24.90;59.14
40059;SHT31;25763;49.972;8.568;2023-06-24T08:24:54;24.93;58.30
40059;SHT31;25763;49.972;8.568;2023-06-24T08:27:19;25.15;59.97
40059;SHT31;25763;49.972;8.568;2023-06-24T08:29:44;25.06;55.92
40059;SHT31;25763;49.972;8.568;2023-06-24T08:32:10;25.22;57.50
40059;SHT31;25763;49.972;8.568;2023-06-24T08:34:35;25.47;58.36
40059;SHT31;25763;49.972;8.568;2023-06-24T08:37:01;25.65;57.97
40059;SHT31;25763;49.972;8.568;2023-06-24T08:39:26;25.71;56.17
40059;SHT31;25763;49.972;8.568;2023-06-24T08:41:52;25.87;57.96
40059;SHT31;25763;49.972;8.568;2023-06-24T08:44:18;25.61;53.48
40059;SHT31;25763;49.972;8.568;2023-06-24T08:46:43;25.84;56.36
40059;SHT31;25763;49.972;8.568;2023-06-24T08:49:21;25.93;56.41
40059;SHT31;25763;49.972;8.568;2023-06-24T08:54:21;25.47;53.40
40059;SHT31;25763;49.972;8.568;2023-06-24T08:56:47;25.77;56.27
40059;SHT31;25763;49.972;8.568;2023-06-24T08:59:12;26.05;56.44
40059;SHT31;25763;49.972;8.568;2023-06-24T09:01:38;26.38;56.71
40059;SHT31;25763;49.972;8.568;2023-06-24T09:04:04;26.61;55.55
40059;SHT31;25763;49.972;8.568;2023-06-24T09:06:31;26.80;55.85
40059;SHT31;25763;49.972;8.568;2023-06-24T09:08:57;26.80;54.76
40059;SHT31;25763;49.972;8.568;2023-06-24T09:11:27;26.98;54.31
40059;SHT31;25763;49.972;8.568;2023-06-24T09:13:56;27.06;54.38
40059;SHT31;25763;49.972;8.568;2023-06-24T09:16:22;27.19;54.94
40059;SHT31;25763;49.972;8.568;2023-06-24T09:18:48;27.32;53.36
40059;SHT31;25763;49.972;8.568;2023-06-24T09:21:23;27.39;54.25
40059;SHT31;25763;49.972;8.568;2023-06-24T09:23:54;27.46;52.90
40059;SHT31;25763;49.972;8.568;2023-06-24T09:26:22;27.65;54.44
40059;SHT31;25763;49.972;8.568;2023-06-24T09:28:48;27.81;52.57
40059;SHT31;25763;49.972;8.568;2023-06-24T09:31:14;27.88;52.27
40059;SHT31;25763;49.972;8.568;2023-06-24T09:33:40;27.60;49.31
40059;SHT31;25763;49.972;8.568;2023-06-24T09:36:05;27.43;47.37
40059;SHT31;25763;49.972;8.568;2023-06-24T09:38:35;27.43;49.32
40059;SHT31;25763;49.972;8.568;2023-06-24T09:41:05;27.02;49.35
40059;SHT31;25763;49.972;8.568;2023-06-24T09:43:33;27.14;48.09
40059;SHT31;25763;49.972;8.568;2023-06-24T09:46:01;27.33;48.84
40059;SHT31;25763;49.972;8.568;2023-06-24T09:48:27;27.30;46.31
40059;SHT31;25763;49.972;8.568;2023-06-24T09:50:55;27.57;48.17
40059;SHT31;25763;49.972;8.568;2023-06-24T09:53:23;27.50;47.40
40059;SHT31;25763;49.972;8.568;2023-06-24T09:55:49;27.39;47.41
40059;SHT31;25763;49.972;8.568;2023-06-24T09:58:16;27.47;45.77
40059;SHT31;25763;49.972;8.568;2023-06-24T10:00:42;27.84;45.97
40059;SHT31;25763;49.972;8.568;2023-06-24T10:03:08;28.34;50.12
40059;SHT31;25763;49.972;8.568;2023-06-24T10:05:34;28.72;49.54
40059;SHT31;25763;49.972;8.568;2023-06-24T10:07:59;28.95;49.60
40059;SHT31;25763;49.972;8.568;2023-06-24T10:10:24;28.74;48.21
40059;SHT31;25763;49.972;8.568;2023-06-24T10:12:50;29.02;47.22
40059;SHT31;25763;49.972;8.568;2023-06-24T10:15:16;28.57;45.66
40059;SHT31;25763;49.972;8.568;2023-06-24T10:17:41;28.45;46.40
40059;SHT31;25763;49.972;8.568;2023-06-24T10:20:07;28.57;47.29
40059;SHT31;25763;49.972;8.568;2023-06-24T10:22:32;28.85;46.33
40059;SHT31;25763;49.972;8.568;2023-06-24T10:25:04;29.20;47.39
40059;SHT31;25763;49.972;8.568;2023-06-24T10:27:38;29.26;45.68
40059;SHT31;25763;49.972;8.568;2023-06-24T10:30:04;29.31;46.21
40059;SHT31;25763;49.972;8.568;2023-06-24T10:32:42;29.20;45.54
40059;SHT31;25763;49.972;8.568;2023-06-24T10:35:22;28.79;43.82
40059;SHT31;25763;49.972;8.568;2023-06-24T10:37:53;28.48;47.13
40059;SHT31;25763;49.972;8.568;2023-06-24T10:40:37;28.15;46.21
40059;SHT31;25763;49.972;8.568;2023-06-24T10:45:53;27.93;47.16
40059;SHT31;25763;49.972;8.568;2023-06-24T10:48:18;28.44;47.20
40059;SHT31;25763;49.972;8.568;2023-06-24T10:50:47;28.72;46.12
40059;SHT31;25763;49.972;8.568;2023-06-24T10:53:13;29.40;46.84
40059;SHT31;25763;49.972;8.568;2023-06-24T10:55:39;29.82;45.48
40059;SHT31;25763;49.972;8.568;2023-06-24T10:58:12;30.00;43.13
40059;SHT31;25763;49.972;8.568;2023-06-24T11:00:38;29.99;43.09
40059;SHT31;25763;49.972;8.568;2023-06-24T11:03:11;29.47;43.80
40059;SHT31;25763;49.972;8.568;2023-06-24T11:05:41;29.09;44.18
40059;SHT31;25763;49.972;8.568;2023-06-24T11:08:07;28.64;43.58
40059;SHT31;25763;49.972;8.568;2023-06-24T11:10:32;28.75;44.94
40059;SHT31;25763;49.972;8.568;2023-06-24T11:13:04;28.67;40.28
40059;SHT31;25763;49.972;8.568;2023-06-24T11:15:30;28.88;42.83
40059;SHT31;25763;49.972;8.568;2023-06-24T11:17:57;28.99;43.71
40059;SHT31;25763;49.972;8.568;2023-06-24T11:20:22;29.55;44.12
40059;SHT31;25763;49.972;8.568;2023-06-24T11:22:48;29.70;42.31
40059;SHT31;25763;49.972;8.568;2023-06-24T11:25:18;30.16;43.05
40059;SHT31;25763;49.972;8.568;2023-06-24T11:27:44;30.65;43.00
40059;SHT31;25763;49.972;8.568;2023-06-24T11:30:11;30.98;42.15
40059;SHT31;25763;49.972;8.568;2023-06-24T11:35:04;31.76;42.90
40059;SHT31;25763;49.972;8.568;2023-06-24T11:37:31;32.11;42.28
40059;SHT31;25763;49.972;8.568;2023-06-24T11:40:05;31.42;37.14
40059;SHT31;25763;49.972;8.568;2023-06-24T11:42:39;30.17;37.77
40059;SHT31;25763;49.972;8.568;2023-06-24T11:45:12;29.33;39.54
40059;SHT31;25763;49.972;8.568;2023-06-24T11:47:38;29.11;41.56
40059;SHT31;25763;49.972;8.568;2023-06-24T11:50:05;29.62;44.29
40059;SHT31;25763;49.972;8.568;2023-06-24T11:52:42;29.58;42.85
40059;SHT31;25763;49.972;8.568;2023-06-24T11:55:19;29.11;41.35
40059;SHT31;25763;49.972;8.568;2023-06-24T12:00:23;28.58;39.83
40059;SHT31;25763;49.972;8.568;2023-06-24T12:02:52;28.58;42.10
40059;SHT31;25763;49.972;8.568;2023-06-24T12:05:29;28.36;42.34
40059;SHT31;25763;49.972;8.568;2023-06-24T12:07:56;28.17;43.03
40059;SHT31;25763;49.972;8.568;2023-06-24T12:10:22;28.01;41.65
40059;SHT31;25763;49.972;8.568;2023-06-24T12:12:48;28.30;42.76
40059;SHT31;25763;49.972;8.568;2023-06-24T12:15:13;28.20;39.76
40059;SHT31;25763;49.972;8.568;2023-06-24T12:17:39;28.67;40.81
40059;SHT31;25763;49.972;8.568;2023-06-24T12:20:05;28.92;40.31
40059;SHT31;25763;49.972;8.568;2023-06-24T12:22:30;29.18;41.40
40059;SHT31;25763;49.972;8.568;2023-06-24T12:24:56;29.57;41.31
40059;SHT31;25763;49.972;8.568;2023-06-24T12:27:21;29.97;43.19
40059;SHT31;25763;49.972;8.568;2023-06-24T12:29:46;30.44;41.92
40059;SHT31;25763;49.972;8.568;2023-06-24T12:32:12;30.65;39.20
40059;SHT31;25763;49.972;8.568;2023-06-24T12:34:37;30.32;39.66
40059;SHT31;25763;49.972;8.568;2023-06-24T12:37:03;30.51;40.16
40059;SHT31;25763;49.972;8.568;2023-06-24T12:39:28;30.29;40.51
40059;SHT31;25763;49.972;8.568;2023-06-24T12:41:53;30.16;39.87
40059;SHT31;25763;49.972;8.568;2023-06-24T12:44:19;30.10;36.47
40059;SHT31;25763;49.972;8.568;2023-06-24T12:46:44;30.45;38.67
40059;SHT31;25763;49.972;8.568;2023-06-24T12:49:09;30.47;38.59
40059;SHT31;25763;49.972;8.568;2023-06-24T12:51:35;31.15;38.34
40059;SHT31;25763;49.972;8.568;2023-06-24T12:54:00;31.29;37.67
40059;SHT31;25763;49.972;8.568;2023-06-24T12:56:25;31.10;37.72
40059;SHT31;25763;49.972;8.568;2023-06-24T12:58:51;30.90;38.19
40059;SHT31;25763;49.972;8.568;2023-06-24T13:01:16;31.11;38.24
40059;SHT31;25763;49.972;8.568;2023-06-24T13:03:41;31.74;39.88
40059;SHT31;25763;49.972;8.568;2023-06-24T13:06:07;31.88;39.11
40059;SHT31;25763;49.972;8.568;2023-06-24T13:08:32;32.10;37.32
40059;SHT31;25763;49.972;8.568;2023-06-24T13:10:57;32.35;37.15
40059;SHT31;25763;49.972;8.568;2023-06-24T13:13:23;32.48;37.06
40059;SHT31;25763;49.972;8.568;2023-06-24T13:15:48;32.33;36.98
40059;SHT31;25763;49.972;8.568;2023-06-24T13:18:13;32.40;36.41
40059;SHT31;25763;49.972;8.568;2023-06-24T13:20:39;32.42;36.02
40059;SHT31;25763;49.972;8.568;2023-06-24T13:23:04;32.52;36.73
40059;SHT31;25763;49.972;8.568;2023-06-24T13:25:29;32.48;33.90
40059;SHT31;25763;49.972;8.568;2023-06-24T13:27:55;32.15;33.59
40059;SHT31;25763;49.972;8.568;2023-06-24T13:30:20;31.67;33.72
40059;SHT31;25763;49.972;8.568;2023-06-24T13:32:46;31.47;35.32
40059;SHT31;25763;49.972;8.568;2023-06-24T13:35:13;30.84;35.45
40059;SHT31;25763;49.972;8.568;2023-06-24T13:37:38;30.48;35.93
40059;SHT31;25763;49.972;8.568;2023-06-24T13:40:05;30.23;36.27
40059;SHT31;25763;49.972;8.568;2023-06-24T13:42:30;30.00;40.35
40059;SHT31;25763;49.972;8.568;2023-06-24T13:44:56;29.59;36.28
40059;SHT31;25763;49.972;8.568;2023-06-24T13:47:22;29.17;37.30
40059;SHT31;25763;49.972;8.568;2023-06-24T13:49:48;29.38;37.54
40059;SHT31;25763;49.972;8.568;2023-06-24T13:52:13;29.54;38.31
40059;SHT31;25763;49.972;8.568;2023-06-24T13:54:38;29.35;38.36
40059;SHT31;25763;49.972;8.568;2023-06-24T13:57:04;29.44;38.52
40059;SHT31;25763;49.972;8.568;2023-06-24T13:59:29;29.26;37.98
40059;SHT31;25763;49.972;8.568;2023-06-24T14:01:55;29.50;41.23
40059;SHT31;25763;49.972;8.568;2023-06-24T14:04:20;29.58;40.24
40059;SHT31;25763;49.972;8.568;2023-06-24T14:06:45;29.66;38.87
40059;SHT31;25763;49.972;8.568;2023-06-24T14:09:12;29.54;38.24
40059;SHT31;25763;49.972;8.568;2023-06-24T14:11:37;29.40;40.18
40059;SHT31;25763;49.972;8.568;2023-06-24T14:14:03;28.63;39.08
40059;SHT31;25763;49.972;8.568;2023-06-24T14:16:28;28.64;39.27
40059;SHT31;25763;49.972;8.568;2023-06-24T14:18:53;28.98;39.58
40059;SHT31;25763;49.972;8.568;2023-06-24T14:21:19;29.00;38.69
40059;SHT31;25763;49.972;8.568;2023-06-24T14:23:44;29.37;38.57
40059;SHT31;25763;49.972;8.568;2023-06-24T14:26:10;28.78;37.58
40059;SHT31;25763;49.972;8.568;2023-06-24T14:28:35;29.04;37.63
40059;SHT31;25763;49.972;8.568;2023-06-24T14:31:01;29.55;42.65
40059;SHT31;25763;49.972;8.568;2023-06-24T14:33:26;29.85;39.13
40059;SHT31;25763;49.972;8.568;2023-06-24T14:35:52;30.01;41.47
40059;SHT31;25763;49.972;8.568;2023-06-24T14:38:17;30.55;39.57
40059;SHT31;25763;49.972;8.568;2023-06-24T14:40:43;30.34;37.79
40059;SHT31;25763;49.972;8.568;2023-06-24T14:43:08;30.68;38.17
40059;SHT31;25763;49.972;8.568;2023-06-24T14:45:33;30.80;38.98
40059;SHT31;25763;49.972;8.568;2023-06-24T14:47:59;30.88;37.28
40059;SHT31;25763;49.972;8.568;2023-06-24T14:50:24;30.20;37.53
40059;SHT31;25763;49.972;8.568;2023-06-24T14:52:50;30.48;38.94
40059;SHT31;25763;49.972;8.568;2023-06-24T14:55:15;30.59;39.95
40059;SHT31;25763;49.972;8.568;2023-06-24T14:57:40;31.18;41.44
40059;SHT31;25763;49.972;8.568;2023-06-24T15:00:07;31.34;39.53
40059;SHT31;25763;49.972;8.568;2023-06-24T15:02:32;31.79;40.68
40059;SHT31;25763;49.972;8.568;2023-06-24T15:04:58;31.87;38.34
40059;SHT31;25763;49.972;8.568;2023-06-24T15:07:24;32.14;40.94
40059;SHT31;25763;49.972;8.568;2023-06-24T15:09:49;32.20;36.83
40059;SHT31;25763;49.972;8.568;2023-06-24T15:12:15;31.72;37.81
40059;SHT31;25763;49.972;8.568;2023-06-24T15:14:41;32.10;37.86
40059;SHT31;25763;49.972;8.568;2023-06-24T15:17:06;32.00;34.76
40059;SHT31;25763;49.972;8.568;2023-06-24T15:19:31;32.08;36.89
40059;SHT31;25763;49.972;8.568;2023-06-24T15:21:57;32.25;37.59
40059;SHT31;25763;49.972;8.568;2023-06-24T15:24:22;32.35;36.01
40059;SHT31;25763;49.972;8.568;2023-06-24T15:26:48;31.47;37.13
40059;SHT31;25763;49.972;8.568;2023-06-24T15:29:13;31.77;35.81
40059;SHT31;25763;49.972;8.568;2023-06-24T15:31:38;31.34;34.19
40059;SHT31;25763;49.972;8.568;2023-06-24T15:34:04;31.94;35.91
40059;SHT31;25763;49.972;8.568;2023-06-24T15:36:29;31.29;34.38
40059;SHT31;25763;49.972;8.568;2023-06-24T15:38:55;30.95;36.73
40059;SHT31;25763;49.972;8.568;2023-06-24T15:41:22;30.93;36.10
40059;SHT31;25763;49.972;8.568;2023-06-24T15:43:47;30.47;36.14